createdAt,value
2017-09-24T00:14:00.566Z,70.81
2017-09-24T00:34:00.919Z,57.87
2017-09-24T00:54:01.411Z,46.51
2017-09-24T01:14:01.901Z,62.59
2017-09-24T01:34:02.381Z,65.57
2017-09-24T01:54:02.684Z,57.85
2017-09-24T02:24:03.458Z,76.04
2017-09-24T02:44:03.830Z,82.91
2017-09-24T03:04:04.267Z,66.24
2017-09-24T03:24:04.703Z,71.94
2017-09-24T03:44:05.150Z,60.68
2017-09-24T04:24:06.020Z,29.19
2017-09-24T04:44:06.407Z,94.52
2017-09-24T05:03:22.657Z,44.10
2017-09-24T05:23:22.846Z,100.00
2017-09-24T05:53:23.595Z,99.64
2017-09-24T06:13:24.045Z,99.96
2017-09-24T06:33:24.610Z,100.00
2017-09-24T06:53:25.148Z,100.00
2017-09-24T07:13:25.718Z,100.00
2017-09-24T07:33:26.132Z,100.00
2017-09-24T07:53:26.585Z,99.89
2017-09-24T08:13:27.077Z,100.00
2017-09-24T08:33:27.407Z,99.90
2017-09-24T08:53:27.798Z,99.77
2017-09-24T09:13:28.323Z,97.95
2017-09-24T09:33:28.876Z,99.96
2017-09-24T09:53:29.387Z,99.93
2017-09-24T10:13:29.724Z,27.06
2017-09-24T10:33:30.210Z,0.00
2017-09-24T10:53:30.718Z,0.00
2017-09-24T11:13:31.285Z,12.62
2017-09-24T11:33:31.818Z,13.44
2017-09-24T11:53:32.329Z,29.80
2017-09-24T12:13:32.790Z,8.94
2017-09-24T12:38:33.327Z,0.00
2017-09-24T12:58:33.848Z,4.81
2017-09-24T13:18:34.170Z,13.44
2017-09-24T13:38:34.719Z,1.15
2017-09-24T13:58:35.228Z,0.40
2017-09-24T14:18:35.629Z,21.35
2017-09-24T14:38:36.113Z,2.72
2017-09-24T14:58:36.550Z,96.76
2017-09-24T15:18:37.129Z,100.00
2017-09-24T15:38:37.612Z,89.08
2017-09-24T15:58:38.155Z,100.00
2017-09-24T16:23:38.735Z,99.78
2017-09-24T16:43:39.234Z,100.00
2017-09-24T17:03:39.725Z,100.00
2017-09-24T17:23:40.233Z,98.17
2017-09-24T17:43:41.769Z,24.86
2017-09-24T18:04:25.679Z,77.99
2017-09-24T18:24:26.236Z,94.51
2017-09-24T18:54:26.993Z,100.00
2017-09-24T19:14:27.470Z,98.54
2017-09-24T19:34:27.924Z,99.57
2017-09-24T19:54:28.490Z,100.00
2017-09-24T20:14:28.957Z,89.80
2017-09-24T20:34:29.419Z,98.39
2017-09-24T20:54:29.922Z,100.00
2017-09-24T21:14:30.297Z,100.00
2017-09-24T21:34:30.787Z,99.64
2017-09-24T21:54:31.305Z,100.00
2017-09-24T22:14:31.818Z,100.00
